Time;durP1;ratioP1;P1;durP2;ratioP2;P2;SDS_P1;SDS_P2;PMS_P1;PMS_P2;Temp;Humidity;BMP_temperature;BMP_pressure;BME280_temperature;BME280_humidity;BME280_pressure;Samples;Min_cycle;Max_cycle;Signal;HPM_P1;HPM_P2
2022/11/14 05:31:18;;;;;;;22.70;16.40;;;;;;;21.56;31.97;101878.79;106160;1279;71541;-88
2022/11/14 05:33:44;;;;;;;24.30;16.70;;;;;;;21.56;31.87;101880.48;104677;1297;69976;-88
2022/11/14 05:36:12;;;;;;;20.80;15.70;;;;;;;21.57;32.11;101881.90;104750;1291;70040;-89
2022/11/14 05:38:38;;;;;;;22.30;14.80;;;;;;;21.58;31.94;101887.91;105046;1288;74451;-88
2022/11/14 05:41:11;;;;;;;24.30;16.30;;;;;;;21.59;31.77;101888.39;104891;1295;70040;-89
2022/11/14 05:43:37;;;;;;;22.00;15.40;;;;;;;21.61;31.79;101886.88;105235;1288;72374;-89
2022/11/14 05:46:04;;;;;;;21.80;15.30;;;;;;;21.65;31.75;101891.05;105281;1295;70044;-89
2022/11/14 05:48:29;;;;;;;21.90;15.40;;;;;;;21.67;31.77;101889.65;105299;1290;69938;-90
2022/11/14 05:50:59;;;;;;;22.00;15.20;;;;;;;21.71;31.66;101892.84;105520;1291;67405;-90
2022/11/14 06:02:40;;;;;;;23.60;15.20;;;;;;;21.77;31.76;101908.85;106458;1287;65486;-91
2022/11/14 06:05:06;;;;;;;29.30;16.40;;;;;;;21.79;31.76;101910.11;105906;1290;74432;-91
2022/11/14 07:51:20;;;;;;;48.30;18.80;;;;;;;21.99;32.46;101890.08;106601;1271;67762;31
2022/11/14 07:53:55;;;;;;;45.20;18.10;;;;;;;21.99;32.27;101891.17;105923;1290;74285;-92
2022/11/14 07:56:25;;;;;;;40.10;17.70;;;;;;;22.00;32.38;101889.23;106105;1290;82232;-91
2022/11/14 07:59:03;;;;;;;39.00;17.70;;;;;;;22.01;32.26;101892.64;105739;1295;72094;-92
2022/11/14 08:01:29;;;;;;;37.90;16.70;;;;;;;22.02;32.34;101891.84;105689;1288;69862;-92
2022/11/14 08:03:55;;;;;;;34.20;17.50;;;;;;;22.03;32.46;101892.02;105535;1293;67822;-90
2022/11/14 08:18:32;;;;;;;36.00;18.40;;;;;;;22.08;32.54;101890.15;106369;1285;67342;-92
2022/11/14 08:54:37;;;;;;;25.60;16.40;;;;;;;22.09;33.15;101875.95;106640;1271;79971;-93
2022/11/14 08:57:06;;;;;;;29.40;17.00;;;;;;;22.10;32.91;101875.89;106198;1282;72676;-92
2022/11/14 09:02:42;;;;;;;30.80;15.90;;;;;;;22.14;32.88;101871.96;106079;1287;66189;-90
2022/11/14 09:05:27;;;;;;;31.30;18.10;;;;;;;22.17;32.81;101872.35;105911;1290;74464;-91
2022/11/14 09:13:53;;;;;;;28.40;16.80;;;;;;;22.19;33.38;101863.77;105934;1290;68111;31
2022/11/14 10:04:54;;;;;;;34.00;16.70;;;;;;;22.36;33.44;101818.01;106302;1293;73976;-90
2022/11/14 10:07:43;;;;;;;32.20;17.50;;;;;;;22.37;33.54;101814.30;105620;1293;83852;-89
2022/11/14 10:12:57;;;;;;;35.80;17.90;;;;;;;22.41;33.74;101806.33;106028;1290;68172;-89
2022/11/14 10:15:28;;;;;;;27.60;17.90;;;;;;;22.42;33.74;101802.27;105977;1288;69880;-92
2022/11/14 10:18:06;;;;;;;28.20;17.10;;;;;;;22.43;33.82;101800.79;106248;1289;75700;-89
2022/11/14 10:20:43;;;;;;;32.40;18.00;;;;;;;22.42;33.76;101798.63;105585;1290;82924;-91
2022/11/14 10:50:43;;;;;;;28.70;16.20;;;;;;;22.11;33.27;101773.89;105944;1274;82794;-91
2022/11/14 11:05:22;;;;;;;26.50;16.20;;;;;;;22.04;33.44;101757.79;106340;1278;80575;-92
2022/11/14 11:13:49;;;;;;;30.10;16.90;;;;;;;22.01;33.64;101763.59;105351;1293;68312;-89
2022/11/14 11:20:30;;;;;;;36.40;18.40;;;;;;;21.99;33.68;101757.76;106685;1276;81959;-90
2022/11/14 11:23:10;;;;;;;36.70;18.70;;;;;;;21.98;33.57;101756.83;105481;1295;72794;-90
2022/11/14 11:28:28;;;;;;;41.90;19.60;;;;;;;21.98;33.68;101750.66;105918;1287;69925;-88
2022/11/14 11:30:56;;;;;;;31.80;19.30;;;;;;;21.96;33.65;101747.62;105861;1288;74367;-92
2022/11/14 11:33:31;;;;;;;32.80;18.40;;;;;;;21.95;33.61;101742.77;105909;1293;83363;-92
2022/11/14 11:36:13;;;;;;;29.80;18.30;;;;;;;21.93;33.49;101746.48;105825;1282;72570;-91
2022/11/14 11:44:39;;;;;;;31.10;17.10;;;;;;;21.84;33.54;101742.40;106287;1289;73266;-92
2022/11/14 11:47:09;;;;;;;31.10;17.50;;;;;;;21.81;33.83;101741.98;105912;1297;81461;-92
2022/11/14 11:59:19;;;;;;;29.30;19.10;;;;;;;21.67;33.77;101732.50;106170;1290;73660;-92
2022/11/14 12:01:45;;;;;;;27.70;17.60;;;;;;;21.57;33.49;101729.83;105810;1297;82954;-91
2022/11/14 12:07:20;;;;;;;31.90;18.70;;;;;;;21.51;33.44;101725.52;105739;1294;366196;-90
2022/11/14 12:09:46;;;;;;;31.90;18.30;;;;;;;21.50;33.40;101727.23;105805;1294;68768;-91
2022/11/14 12:12:17;;;;;;;29.80;18.20;;;;;;;21.48;33.49;101724.91;105916;1295;68328;-91
2022/11/14 12:14:52;;;;;;;25.00;16.50;;;;;;;21.47;33.38;101718.40;106039;1287;83188;-91
2022/11/14 12:17:49;;;;;;;33.50;17.80;;;;;;;21.47;33.43;101718.23;106004;1281;72540;-90
2022/11/14 12:20:31;;;;;;;29.30;17.00;;;;;;;21.47;33.51;101713.92;105997;1288;68014;-89
2022/11/14 12:23:10;;;;;;;28.10;16.80;;;;;;;21.47;33.41;101713.58;105857;1292;67542;-91
2022/11/14 12:26:14;;;;;;;30.40;16.60;;;;;;;21.47;33.48;101710.35;105948;1281;74415;-90
2022/11/14 12:29:04;;;;;;;27.50;16.60;;;;;;;21.47;33.40;101710.30;105729;1293;81812;-90
2022/11/14 12:31:31;;;;;;;28.10;16.30;;;;;;;21.46;33.52;101704.86;106060;1294;73530;-88
2022/11/14 12:37:30;;;;;;;28.20;16.90;;;;;;;21.46;33.47;101703.20;106112;1287;68995;31
2022/11/14 12:40:49;;;;;;;27.10;15.70;;;;;;;21.46;33.56;101709.36;105872;1293;74413;31
2022/11/14 12:43:30;;;;;;;27.70;16.00;;;;;;;21.47;33.52;101709.17;105877;1284;82790;-89
2022/11/14 12:46:13;;;;;;;23.90;15.50;;;;;;;21.47;33.57;101705.23;105810;1279;72506;31
2022/11/14 12:48:56;;;;;;;27.50;15.40;;;;;;;21.48;33.48;101703.62;105766;1291;68312;-89
2022/11/14 12:51:24;;;;;;;26.00;14.90;;;;;;;21.49;33.40;101707.77;105834;1298;68433;-89
2022/11/14 12:53:51;;;;;;;26.10;15.80;;;;;;;21.50;33.53;101704.60;105976;1287;74430;-91
2022/11/14 12:56:30;;;;;;;27.10;15.80;;;;;;;21.51;33.53;101706.23;105744;1287;67374;-91
2022/11/14 12:59:05;;;;;;;27.00;14.60;;;;;;;21.52;33.40;101706.52;105965;1280;71405;-91
2022/11/14 13:01:34;;;;;;;25.60;14.60;;;;;;;21.53;33.44;101707.48;105944;1290;68741;-90
2022/11/14 13:04:16;;;;;;;22.90;15.40;;;;;;;21.54;33.23;101706.16;106011;1289;67918;-91
2022/11/14 13:23:59;;;;;;;29.00;17.30;;;;;;;21.51;33.84;101697.56;106095;1281;81831;-91
2022/11/14 13:26:29;;;;;;;26.80;17.10;;;;;;;21.46;33.83;101698.29;105975;1293;69986;-91
2022/11/14 13:28:58;;;;;;;28.10;16.30;;;;;;;21.40;33.89;101698.27;106086;1294;67960;-92
2022/11/14 13:31:30;;;;;;;26.90;14.80;;;;;;;21.39;33.99;101692.80;105819;1291;69032;-90
2022/11/14 13:33:58;;;;;;;21.40;14.00;;;;;;;21.39;34.34;101694.09;105972;1293;74797;-88
2022/11/14 13:36:30;;;;;;;21.80;14.50;;;;;;;21.40;34.21;101696.14;105620;1297;82915;-91
2022/11/14 13:39:19;;;;;;;23.00;14.40;;;;;;;21.41;34.30;101693.41;106046;1294;72617;-91
2022/11/14 13:42:32;;;;;;;23.10;13.40;;;;;;;21.43;34.41;101692.41;106072;1284;67510;-90
2022/11/14 13:45:03;;;;;;;20.70;13.40;;;;;;;21.44;34.27;101692.64;105474;1296;70139;-90
2022/11/14 13:47:41;;;;;;;;;;;;;;;21.48;34.26;101689.42;105984;1280;74563;-91
2022/11/14 13:50:07;;;;;;;22.00;13.20;;;;;;;21.48;34.13;101688.86;105849;1292;83023;-91
2022/11/14 13:52:36;;;;;;;20.70;13.30;;;;;;;21.51;34.15;101680.73;105924;1284;67974;-89
2022/11/14 13:55:02;;;;;;;21.30;13.20;;;;;;;21.54;34.08;101680.48;105831;1290;68044;-89
2022/11/14 14:00:17;;;;;;;22.30;15.60;;;;;;;21.61;33.99;101688.17;106236;1284;73857;-91
2022/11/14 14:03:14;;;;;;;21.70;14.60;;;;;;;21.65;34.10;101686.61;105864;1295;82206;-91
2022/11/14 14:05:43;;;;;;;23.30;15.40;;;;;;;21.68;34.00;101685.02;105857;1285;73684;-91
2022/11/14 14:08:25;;;;;;;23.60;16.00;;;;;;;21.72;34.04;101685.55;106026;1291;68079;-89
2022/11/14 14:11:22;;;;;;;44.90;30.00;;;;;;;21.75;34.08;101688.27;105922;1288;67956;-90
2022/11/14 14:14:22;;;;;;;44.60;31.50;;;;;;;21.80;33.97;101689.35;105985;1295;74305;-89
2022/11/14 14:17:01;;;;;;;42.40;29.90;;;;;;;21.83;33.86;101685.30;105970;1287;82959;-90
2022/11/14 14:19:29;;;;;;;35.60;23.60;;;;;;;21.85;33.72;101679.77;105821;1290;72306;-90
2022/11/14 14:22:30;;;;;;;32.80;23.60;;;;;;;21.88;34.01;101679.55;105859;1280;68948;-90
2022/11/14 14:25:04;;;;;;;;;;;;;;;21.93;34.07;101679.66;105683;1279;69819;-90
2022/11/14 14:28:03;;;;;;;29.70;21.10;;;;;;;21.92;34.12;101672.85;105876;1282;74511;31
2022/11/14 14:31:13;;;;;;;29.30;20.60;;;;;;;21.96;33.95;101671.77;105768;1296;82912;31
2022/11/14 14:33:40;;;;;;;30.20;19.70;;;;;;;21.98;33.90;101669.55;105750;1297;72384;-88
2022/11/14 14:42:08;;;;;;;25.80;18.00;;;;;;;22.04;33.69;101667.23;105880;1288;74319;-90
2022/11/14 14:44:37;;;;;;;;;;;;;;;22.06;33.72;101665.30;105771;1292;82867;-91
2022/11/14 14:47:17;;;;;;;23.10;16.70;;;;;;;22.04;33.52;101665.48;105954;1281;72491;-91
2022/11/14 14:49:43;;;;;;;25.40;16.60;;;;;;;22.07;33.50;101665.10;105867;1274;68157;-90
2022/11/14 14:52:37;;;;;;;22.40;16.00;;;;;;;22.08;33.48;101662.20;105846;1280;68107;-90
2022/11/14 14:55:05;;;;;;;26.00;15.50;;;;;;;22.10;33.41;101663.31;105770;1289;74548;-91
2022/11/14 14:57:39;;;;;;;24.20;15.50;;;;;;;22.12;33.22;101666.27;105852;1279;82842;31
2022/11/14 15:02:54;;;;;;;22.10;15.50;;;;;;;22.17;33.20;101662.95;105998;1295;68180;-91
2022/11/14 15:05:24;;;;;;;20.40;15.10;;;;;;;22.18;33.16;101659.54;105857;1293;68269;-91
2022/11/14 15:07:52;;;;;;;20.90;15.00;;;;;;;22.20;33.14;101655.55;105955;1293;74445;-90
2022/11/14 15:10:25;;;;;;;21.00;15.20;;;;;;;22.21;33.07;101655.83;105856;1288;82919;-91
2022/11/14 15:13:10;;;;;;;25.70;15.60;;;;;;;22.22;32.91;101655.27;105900;1284;72673;-90
2022/11/14 15:15:40;;;;;;;26.70;15.30;;;;;;;22.23;32.79;101659.44;105825;1290;69789;-89
2022/11/14 15:18:06;;;;;;;22.70;15.10;;;;;;;22.22;32.81;101658.24;105601;1297;67694;-91
2022/11/14 15:20:32;;;;;;;25.50;15.30;;;;;;;22.22;32.86;101652.25;105649;1288;70446;-91
2022/11/14 15:23:15;;;;;;;25.00;15.00;;;;;;;22.23;32.84;101655.02;105587;1296;68421;-91
2022/11/14 15:25:40;;;;;;;22.80;14.60;;;;;;;22.24;32.77;101655.45;105707;1300;72520;-91
2022/11/14 15:28:16;;;;;;;23.60;14.10;;;;;;;22.25;32.70;101657.56;105559;1291;69909;-91
2022/11/14 15:30:42;;;;;;;21.30;14.30;;;;;;;22.26;32.65;101653.08;105567;1293;67756;-91
2022/11/14 15:33:28;;;;;;;22.80;14.80;;;;;;;22.27;32.74;101655.91;105605;1294;69943;-91
2022/11/14 15:36:16;;;;;;;20.70;14.30;;;;;;;22.28;32.60;101654.69;105535;1294;82832;-91
2022/11/14 15:39:27;;;;;;;20.30;13.50;;;;;;;22.30;32.64;101660.81;105563;1294;72550;-91
2022/11/14 15:42:14;;;;;;;22.50;13.90;;;;;;;22.30;32.59;101663.11;104959;1301;70229;-91
2022/11/14 15:44:41;;;;;;;20.20;13.30;;;;;;;22.32;32.69;101660.94;105397;1297;68692;-91
2022/11/14 15:47:26;;;;;;;20.50;13.70;;;;;;;22.33;32.70;101668.86;105516;1296;74215;-91
2022/11/14 15:49:57;;;;;;;18.60;12.90;;;;;;;22.34;32.67;101665.08;105649;1294;81918;-91
2022/11/14 15:52:29;;;;;;;19.60;13.00;;;;;;;22.35;32.61;101666.06;105525;1296;72396;-91
2022/11/14 15:54:55;;;;;;;19.80;13.20;;;;;;;22.36;32.61;101666.59;105685;1294;67543;-92
2022/11/14 15:57:21;;;;;;;19.50;12.80;;;;;;;22.37;32.60;101663.94;105662;1295;69988;-90
2022/11/14 15:59:46;;;;;;;17.50;12.10;;;;;;;22.38;32.67;101662.20;105659;1282;70024;-91
2022/11/14 16:02:27;;;;;;;16.60;11.80;;;;;;;22.40;32.54;101666.79;105695;1296;69877;-91
2022/11/14 16:04:53;;;;;;;19.90;11.90;;;;;;;22.41;32.70;101661.71;105764;1287;72365;-90
2022/11/14 16:07:19;;;;;;;17.40;11.90;;;;;;;22.41;32.53;101659.83;105745;1291;67570;-91
2022/11/14 16:09:49;;;;;;;16.50;12.10;;;;;;;22.42;32.56;101659.08;105756;1299;67659;-90
2022/11/14 16:12:50;;;;;;;15.50;11.20;;;;;;;22.42;32.64;101660.98;105823;1293;74389;-88
2022/11/14 16:15:20;;;;;;;15.10;11.20;;;;;;;22.42;32.64;101656.23;105719;1287;82659;-87
2022/11/14 16:17:47;;;;;;;17.30;11.80;;;;;;;22.43;32.61;101657.72;105778;1290;72496;-91
2022/11/14 16:20:20;;;;;;;16.10;12.20;;;;;;;22.43;32.60;101656.19;105915;1282;68010;-91
2022/11/14 16:22:47;;;;;;;16.80;11.10;;;;;;;22.44;32.52;101657.99;106003;1298;67711;-89
2022/11/14 16:25:21;;;;;;;17.90;12.10;;;;;;;22.45;32.54;101658.27;106000;1282;72100;-90
2022/11/14 16:27:51;;;;;;;16.00;11.00;;;;;;;22.46;32.56;101660.08;105827;1293;82852;-91
2022/11/14 16:30:18;;;;;;;14.60;10.60;;;;;;;22.46;32.57;101658.85;105752;1286;71929;-89
2022/11/14 16:32:47;;;;;;;16.10;11.10;;;;;;;22.47;32.42;101655.16;105590;1303;69789;-91
2022/11/14 16:35:24;;;;;;;15.70;11.70;;;;;;;22.48;32.44;101654.39;105635;1296;69386;-91
2022/11/14 16:37:49;;;;;;;18.10;11.50;;;;;;;22.48;32.50;101655.33;105772;1293;74604;-92
2022/11/14 16:40:24;;;;;;;15.80;11.80;;;;;;;22.48;32.48;101653.64;105627;1296;67683;-91
2022/11/14 16:42:49;;;;;;;15.60;11.10;;;;;;;22.49;32.47;101652.94;105734;1296;73558;-89
2022/11/14 16:45:16;;;;;;;15.10;11.00;;;;;;;22.49;32.43;101654.08;105930;1293;67966;-90
2022/11/14 16:47:41;;;;;;;14.30;10.90;;;;;;;22.50;32.51;101651.71;106035;1288;67618;-91
2022/11/14 16:50:07;;;;;;;14.30;10.40;;;;;;;22.51;32.49;101653.58;106032;1286;69872;-91
2022/11/14 16:52:33;;;;;;;17.40;10.50;;;;;;;22.50;32.44;101658.75;105803;1299;68279;-91
2022/11/14 16:54:58;;;;;;;16.80;10.70;;;;;;;22.51;32.49;101661.36;105746;1291;67989;-91
2022/11/14 16:57:32;;;;;;;13.90;10.50;;;;;;;22.51;32.41;101657.73;105858;1287;68964;-91
2022/11/14 17:00:09;;;;;;;14.70;10.80;;;;;;;22.52;32.41;101658.35;105855;1281;74450;31
2022/11/14 17:02:35;;;;;;;16.00;10.90;;;;;;;22.52;32.31;101659.95;105755;1297;83601;-91
2022/11/14 17:05:00;;;;;;;16.90;10.40;;;;;;;22.52;32.37;101662.66;106016;1291;70001;-91
2022/11/14 17:07:29;;;;;;;14.90;10.40;;;;;;;22.51;32.32;101663.11;106137;1288;69953;-90
2022/11/14 17:09:59;;;;;;;15.90;10.30;;;;;;;22.51;32.34;101659.88;106022;1299;68695;-90
2022/11/14 17:12:31;;;;;;;15.30;10.40;;;;;;;22.50;32.30;101658.27;106139;1287;74290;-89
2022/11/14 17:15:16;;;;;;;14.60;10.20;;;;;;;22.50;32.27;101657.30;106213;1290;83065;31
2022/11/14 17:17:48;;;;;;;11.90;9.30;;;;;;;22.50;32.34;101661.52;106144;1284;72231;-91
2022/11/14 17:20:18;;;;;;;15.10;10.30;;;;;;;22.50;32.27;101662.83;106283;1284;67657;-90
2022/11/14 17:22:43;;;;;;;13.10;9.80;;;;;;;22.49;32.30;101661.88;106009;1290;69974;-90
2022/11/14 17:25:09;;;;;;;15.20;10.50;;;;;;;22.49;32.29;101659.80;106238;1284;67945;-89
2022/11/14 17:27:34;;;;;;;14.80;9.90;;;;;;;22.49;32.28;101661.41;106409;1290;67877;-91
2022/11/14 17:30:05;;;;;;;13.30;9.70;;;;;;;22.49;32.30;101663.10;105878;1294;70415;-88
2022/11/14 17:32:31;;;;;;;13.60;10.00;;;;;;;22.49;32.25;101657.86;105921;1292;67692;-90
2022/11/14 17:34:56;;;;;;;12.30;9.40;;;;;;;22.50;32.27;101653.23;105865;1292;68009;-91
2022/11/14 17:37:22;;;;;;;13.40;10.10;;;;;;;22.49;32.23;101654.58;105703;1291;69920;-91
2022/11/14 17:39:48;;;;;;;12.60;9.50;;;;;;;22.49;32.20;101656.02;105799;1291;67932;-91
2022/11/14 17:42:13;;;;;;;13.90;9.90;;;;;;;22.49;32.22;101660.13;105841;1285;69707;-90
2022/11/14 17:44:42;;;;;;;15.20;10.00;;;;;;;22.49;32.20;101654.11;105645;1295;74413;-91
2022/11/14 17:47:08;;;;;;;12.50;9.50;;;;;;;22.49;32.25;101652.63;106053;1287;81699;-90
2022/11/14 17:49:34;;;;;;;11.50;9.40;;;;;;;22.49;32.15;101653.04;106226;1282;67536;-90
2022/11/14 17:52:02;;;;;;;14.60;10.10;;;;;;;22.49;32.12;101648.63;106147;1290;67626;-89
2022/11/14 17:54:27;;;;;;;13.60;9.80;;;;;;;22.48;32.26;101649.39;106249;1290;68281;-90
2022/11/14 17:56:53;;;;;;;12.70;9.90;;;;;;;22.48;32.17;101649.23;106084;1292;67980;-90
2022/11/14 17:59:20;;;;;;;12.00;9.50;;;;;;;22.48;32.23;101647.70;105944;1295;67545;-90
2022/11/14 18:01:46;;;;;;;17.90;10.30;;;;;;;22.48;32.25;101647.38;106055;1291;68266;-91
2022/11/14 18:04:11;;;;;;;12.30;9.80;;;;;;;22.48;32.08;101647.47;106105;1289;70009;-89
2022/11/14 18:06:37;;;;;;;13.10;9.60;;;;;;;22.47;32.14;101647.02;105974;1289;67582;-89
2022/11/14 18:09:05;;;;;;;13.80;9.90;;;;;;;22.48;32.10;101649.02;105965;1290;82918;-89
2022/11/14 18:11:31;;;;;;;12.40;9.20;;;;;;;22.47;32.20;101642.30;106230;1290;71325;-90
2022/11/14 18:13:56;;;;;;;12.00;9.50;;;;;;;22.47;32.05;101644.39;106381;1291;67479;-91
2022/11/14 18:16:25;;;;;;;12.50;10.00;;;;;;;22.46;32.11;101643.52;106281;1282;67401;-90
2022/11/14 18:18:54;;;;;;;15.50;9.90;;;;;;;22.47;32.13;101645.27;105995;1290;74548;-90
2022/11/14 18:21:22;;;;;;;11.30;9.20;;;;;;;22.46;32.09;101643.52;105940;1291;81461;-91
2022/11/14 18:23:57;;;;;;;13.20;9.40;;;;;;;22.47;32.11;101641.41;105716;1283;71337;31
2022/11/14 18:26:26;;;;;;;13.20;9.10;;;;;;;22.47;32.04;101640.60;105790;1294;68030;-91
2022/11/14 18:28:59;;;;;;;12.90;9.70;;;;;;;22.47;31.98;101636.90;105832;1287;68737;-91
2022/11/14 18:31:25;;;;;;;12.90;9.50;;;;;;;22.46;31.96;101636.84;105852;1294;74276;-91
2022/11/14 18:33:51;;;;;;;12.50;9.20;;;;;;;22.46;32.06;101634.75;105766;1290;68046;-91
2022/11/14 18:36:16;;;;;;;14.60;9.50;;;;;;;22.46;32.11;101632.83;105691;1288;69893;-91
2022/11/14 18:38:47;;;;;;;13.10;9.50;;;;;;;22.46;31.92;101630.98;105722;1288;68584;31
2022/11/14 18:41:14;;;;;;;13.50;9.70;;;;;;;22.46;32.03;101636.22;105821;1298;67965;-91
2022/11/14 18:43:40;;;;;;;13.00;9.20;;;;;;;22.46;32.10;101633.70;105841;1290;74318;-91
2022/11/14 18:46:13;;;;;;;13.30;9.20;;;;;;;22.46;31.94;101632.13;105815;1290;68307;-90
2022/11/14 18:48:40;;;;;;;12.00;8.70;;;;;;;22.46;31.98;101635.09;105837;1288;71281;-90
2022/11/14 18:51:09;;;;;;;11.70;8.70;;;;;;;22.45;32.02;101632.79;105891;1296;68793;-91
2022/11/14 18:56:11;;;;;;;12.20;9.20;;;;;;;22.45;31.89;101638.83;106034;1288;74434;-91
2022/11/14 18:58:38;;;;;;;12.80;8.80;;;;;;;22.46;31.92;101644.77;105779;1293;84170;-90
2022/11/14 19:01:15;;;;;;;11.50;8.70;;;;;;;22.45;31.96;101643.82;105869;1290;72455;-89
2022/11/14 19:03:41;;;;;;;11.40;8.30;;;;;;;22.46;31.92;101638.17;105831;1293;69792;-89
2022/11/14 19:06:08;;;;;;;12.60;9.60;;;;;;;22.45;31.91;101638.98;106030;1297;69801;-89
2022/11/14 19:08:57;;;;;;;13.30;9.00;;;;;;;22.45;31.92;101638.83;106045;1293;69879;31
2022/11/14 19:14:09;;;;;;;12.50;9.00;;;;;;;22.45;31.95;101643.82;105735;1289;72531;-91
2022/11/14 19:16:35;;;;;;;12.40;8.80;;;;;;;22.46;31.90;101646.21;106007;1282;67538;-91
2022/11/14 19:19:01;;;;;;;12.40;9.10;;;;;;;22.45;32.01;101644.38;105860;1283;68516;-90
2022/11/14 19:21:27;;;;;;;11.80;8.70;;;;;;;22.46;31.94;101643.24;105855;1282;70036;-90
2022/11/14 19:23:53;;;;;;;11.80;8.60;;;;;;;22.46;31.81;101640.48;106047;1288;70029;-88
2022/11/14 19:29:05;;;;;;;13.60;9.00;;;;;;;22.46;31.91;101635.09;106032;1287;69828;-91
2022/11/14 19:31:31;;;;;;;12.30;8.70;;;;;;;22.46;31.92;101634.52;105837;1293;73241;-89
2022/11/14 19:33:58;;;;;;;11.90;8.90;;;;;;;22.46;31.92;101630.90;105852;1280;67968;-89
2022/11/14 19:36:24;;;;;;;11.30;8.70;;;;;;;22.46;31.92;101634.98;105877;1290;68482;-91
2022/11/14 19:38:53;;;;;;;11.50;8.80;;;;;;;22.46;31.89;101635.05;105844;1278;68332;-91
2022/11/14 19:44:00;;;;;;;10.80;8.20;;;;;;;22.46;31.83;101636.98;106000;1294;73040;-89
2022/11/14 19:46:28;;;;;;;13.10;9.10;;;;;;;22.46;31.93;101633.92;105832;1295;69038;-89
2022/11/14 19:48:57;;;;;;;11.80;8.70;;;;;;;22.46;31.88;101638.78;105804;1292;67267;-89
2022/11/14 19:51:23;;;;;;;12.10;8.30;;;;;;;22.46;31.95;101635.66;105781;1294;69900;-89
2022/11/14 19:53:49;;;;;;;11.90;8.80;;;;;;;22.46;31.83;101638.16;105824;1291;67733;-89
2022/11/14 19:56:16;;;;;;;12.50;9.10;;;;;;;22.46;31.84;101637.52;105831;1294;69976;-89
2022/11/14 19:58:43;;;;;;;12.70;8.60;;;;;;;22.45;31.74;101631.19;105816;1288;69978;-89
2022/11/14 20:01:14;;;;;;;11.50;8.60;;;;;;;22.45;31.83;101635.45;105765;1290;73148;-89
2022/11/14 20:03:40;;;;;;;13.50;8.70;;;;;;;22.45;31.74;101639.75;105739;1290;69866;-89
2022/11/14 20:06:33;;;;;;;12.40;8.90;;;;;;;22.44;31.79;101638.71;105883;1290;68387;-89
2022/11/14 20:09:04;;;;;;;11.10;8.50;;;;;;;22.44;31.81;101638.81;106140;1290;74495;-89
2022/11/14 20:11:30;;;;;;;14.20;9.70;;;;;;;22.44;31.74;101635.27;106126;1290;82984;-91
2022/11/14 20:13:56;;;;;;;13.10;9.30;;;;;;;22.44;31.75;101635.06;106036;1290;69194;-91
2022/11/14 20:16:24;;;;;;;13.40;9.20;;;;;;;22.45;31.72;101635.48;106175;1283;69999;-91
2022/11/14 20:18:51;;;;;;;12.10;8.90;;;;;;;22.44;31.71;101635.68;106245;1290;68587;-91
2022/11/14 20:21:18;;;;;;;15.30;9.10;;;;;;;22.44;31.72;101635.75;106058;1291;75365;-91
2022/11/14 20:23:44;;;;;;;13.30;9.50;;;;;;;22.44;31.63;101635.69;105980;1291;81655;-91
2022/11/14 20:28:44;;;;;;;13.60;9.60;;;;;;;22.43;31.66;101624.74;105923;1288;69832;-91
2022/11/14 20:31:15;;;;;;;15.40;9.70;;;;;;;22.44;31.58;101626.73;105757;1294;68268;-91
2022/11/14 20:33:41;;;;;;;12.20;9.00;;;;;;;22.44;31.52;101624.80;105681;1295;74411;-91
2022/11/14 20:36:09;;;;;;;15.50;10.00;;;;;;;22.43;31.60;101619.21;105644;1293;83152;-91
2022/11/14 20:38:35;;;;;;;13.80;9.30;;;;;;;22.43;31.60;101617.20;105797;1285;71211;-90
2022/11/14 20:43:44;;;;;;;11.70;9.00;;;;;;;22.44;31.54;101618.53;106238;1294;69754;-89
2022/11/14 20:46:12;;;;;;;15.50;9.60;;;;;;;22.43;31.51;101615.66;106100;1288;70033;-91
2022/11/14 20:48:43;;;;;;;15.40;9.50;;;;;;;22.43;31.61;101614.70;105729;1294;82891;-89
2022/11/14 20:51:12;;;;;;;13.60;9.30;;;;;;;22.43;31.52;101612.27;105783;1291;72326;-91
2022/11/14 20:53:38;;;;;;;13.70;10.00;;;;;;;22.43;31.50;101604.06;105968;1289;69231;-91
2022/11/14 20:58:44;;;;;;;13.20;9.80;;;;;;;22.42;31.45;101600.57;105924;1287;74521;-91
2022/11/14 21:01:10;;;;;;;14.00;10.10;;;;;;;22.42;31.54;101598.81;105792;1295;82791;-89
2022/11/14 21:03:36;;;;;;;13.90;9.60;;;;;;;22.41;31.50;101598.75;105914;1288;68563;-89
2022/11/14 21:06:01;;;;;;;14.40;10.00;;;;;;;22.41;31.45;101597.81;105811;1293;67893;-89
2022/11/14 21:08:28;;;;;;;14.20;9.60;;;;;;;22.40;31.38;101600.17;106052;1285;69971;-90
2022/11/14 21:34:33;;;;;;;14.40;9.80;;;;;;;22.27;31.49;101594.17;105850;1294;68257;-90
2022/11/14 21:37:04;;;;;;;13.90;9.80;;;;;;;22.25;31.59;101599.59;105685;1282;68259;-90
2022/11/14 21:39:29;;;;;;;15.90;10.10;;;;;;;22.25;31.53;101593.50;105904;1290;74512;-90
2022/11/14 21:41:55;;;;;;;15.50;10.30;;;;;;;22.24;31.59;101599.77;105918;1290;67662;-90
2022/11/14 21:44:21;;;;;;;14.10;9.90;;;;;;;22.23;31.52;101590.64;105836;1286;68266;-89
2022/11/14 21:49:20;;;;;;;13.40;9.70;;;;;;;22.21;31.48;101589.23;106204;1279;69928;-91
2022/11/14 21:51:47;;;;;;;13.20;9.60;;;;;;;22.20;31.58;101590.09;105916;1297;69097;-91
2022/11/14 21:54:12;;;;;;;14.30;9.50;;;;;;;22.19;31.69;101586.84;105895;1290;69798;-91
2022/11/14 21:56:38;;;;;;;14.70;10.60;;;;;;;22.18;31.62;101585.60;105700;1298;69855;-91
2022/11/14 21:59:12;;;;;;;13.90;9.50;;;;;;;22.17;31.64;101583.34;105735;1293;68396;-91
2022/11/14 22:04:26;;;;;;;14.20;9.70;;;;;;;22.15;31.65;101577.98;105731;1295;74478;-90
2022/11/14 22:06:52;;;;;;;13.40;9.40;;;;;;;22.14;31.74;101578.75;105931;1290;69851;-91
2022/11/14 22:09:17;;;;;;;13.80;9.10;;;;;;;22.13;31.89;101579.85;105831;1294;67776;-91
2022/11/14 22:11:43;;;;;;;14.30;9.60;;;;;;;22.12;31.97;101575.48;106001;1297;67315;-91
2022/11/14 22:14:26;;;;;;;13.70;9.80;;;;;;;22.12;31.90;101573.90;106402;1288;67941;-90
2022/11/14 22:16:59;;;;;;;14.90;10.50;;;;;;;22.10;31.84;101568.13;106440;1288;82859;31
2022/11/14 22:19:24;;;;;;;13.10;9.50;;;;;;;22.10;31.92;101566.27;105776;1289;72373;-90
2022/11/14 22:21:50;;;;;;;14.20;9.80;;;;;;;22.08;32.03;101564.52;105996;1290;67701;-89
2022/11/14 22:24:16;;;;;;;13.10;9.30;;;;;;;22.07;32.06;101559.80;105972;1295;69962;-89
2022/11/14 22:26:41;;;;;;;13.20;9.60;;;;;;;22.07;32.08;101553.70;106048;1287;70002;-91
2022/11/14 22:29:11;;;;;;;14.60;9.60;;;;;;;22.06;31.96;101552.45;106527;1284;67595;-91
2022/11/14 22:34:10;;;;;;;15.10;10.00;;;;;;;22.04;32.03;101547.97;106119;1289;69915;-91
2022/11/14 22:36:35;;;;;;;14.00;9.60;;;;;;;22.04;32.04;101541.09;105814;1294;68149;-91
2022/11/14 22:39:01;;;;;;;14.50;10.00;;;;;;;22.03;32.08;101538.63;105863;1291;68939;-89
2022/11/14 22:41:29;;;;;;;18.40;9.70;;;;;;;22.02;32.07;101533.75;106129;1285;69868;-91
2022/11/14 22:43:54;;;;;;;15.40;10.20;;;;;;;22.02;32.08;101532.09;106407;1288;67587;-89
2022/11/14 22:46:20;;;;;;;16.40;9.80;;;;;;;22.01;32.03;101527.08;106319;1287;67543;-90
2022/11/14 22:48:46;;;;;;;16.10;10.40;;;;;;;22.00;32.04;101523.36;106457;1291;67499;-90
2022/11/14 22:51:19;;;;;;;14.70;10.20;;;;;;;22.00;32.00;101522.91;106506;1291;68204;-91
2022/11/14 22:53:49;;;;;;;13.70;10.20;;;;;;;21.97;32.09;101517.08;105690;1295;67644;-91
2022/11/14 22:56:16;;;;;;;16.10;10.40;;;;;;;21.97;32.15;101517.64;105850;1288;69833;-90
2022/11/14 22:58:49;;;;;;;13.20;9.20;;;;;;;21.97;31.91;101519.44;105901;1291;74448;31
2022/11/14 23:01:22;;;;;;;17.00;10.70;;;;;;;21.95;32.01;101511.48;105843;1294;83623;-89
2022/11/14 23:03:52;;;;;;;15.40;10.20;;;;;;;21.94;32.01;101515.14;106017;1290;72425;-89
2022/11/14 23:06:18;;;;;;;14.20;9.90;;;;;;;21.93;31.95;101508.77;106120;1290;67613;-91